createdAt,value
2018-01-21T00:00:05.285Z,60.75
2018-01-21T00:02:34.902Z,47.00
2018-01-21T00:05:04.730Z,42.33
2018-01-21T00:07:34.613Z,44.53
2018-01-21T00:10:04.448Z,60.88
2018-01-21T00:12:34.489Z,65.47
2018-01-21T00:15:04.322Z,45.12
2018-01-21T00:17:34.342Z,57.17
2018-01-21T00:20:04.170Z,37.83
2018-01-21T00:22:39.998Z,41.35
2018-01-21T00:25:09.898Z,50.33
2018-01-21T00:27:39.719Z,36.13
2018-01-21T00:30:09.605Z,49.75
2018-01-21T00:32:39.431Z,61.47
2018-01-21T00:35:09.361Z,37.38
2018-01-21T00:37:39.289Z,82.00
2018-01-21T00:40:09.217Z,164.32
2018-01-21T00:42:39.045Z,78.15
2018-01-21T00:45:08.921Z,57.10
2018-01-21T00:47:38.781Z,101.55
2018-01-21T00:50:08.606Z,67.45
2018-01-21T00:52:38.474Z,85.62
2018-01-21T00:55:08.311Z,61.80
2018-01-21T00:57:38.201Z,72.55
2018-01-21T01:00:08.027Z,66.97
2018-01-21T01:02:37.894Z,80.35
2018-01-21T01:05:07.726Z,50.10
2018-01-21T01:07:37.591Z,84.03
2018-01-21T01:10:07.461Z,61.22
2018-01-21T01:12:37.286Z,71.50
2018-01-21T01:15:07.165Z,49.38
2018-01-21T01:17:36.993Z,65.55
2018-01-21T01:20:06.870Z,50.38
2018-01-21T01:22:36.737Z,48.33
2018-01-21T01:25:06.570Z,41.97
2018-01-21T01:27:36.502Z,63.25
2018-01-21T01:30:06.326Z,76.22
2018-01-21T01:32:36.193Z,178.77
2018-01-21T01:35:06.024Z,63.33
2018-01-21T01:37:36.010Z,57.53
2018-01-21T01:40:05.837Z,63.87
2018-01-21T01:42:35.661Z,93.15
2018-01-21T01:45:05.534Z,49.83
2018-01-21T01:47:35.354Z,65.93
2018-01-21T01:50:05.229Z,57.00
2018-01-21T01:52:35.054Z,54.42
2018-01-21T01:55:04.914Z,86.72
2018-01-21T01:57:34.752Z,83.93
2018-01-21T02:00:04.626Z,52.00
2018-01-21T02:02:34.570Z,49.45
2018-01-21T02:05:04.393Z,52.17
2018-01-21T02:07:34.277Z,34.22
2018-01-21T02:10:04.102Z,40.00
2018-01-21T02:12:33.961Z,39.13
2018-01-21T02:15:03.785Z,82.45
2018-01-21T02:17:33.920Z,46.00
2018-01-21T02:20:03.749Z,39.28
2018-01-21T02:22:33.569Z,80.70
2018-01-21T02:25:03.425Z,60.22
2018-01-21T02:27:33.249Z,83.35
2018-01-21T02:30:03.113Z,57.80
2018-01-21T02:32:32.933Z,79.75
2018-01-21T02:35:02.764Z,55.60
2018-01-21T02:37:32.637Z,78.25
2018-01-21T02:40:02.462Z,96.45
2018-01-21T02:42:32.333Z,79.72
2018-01-21T02:45:02.212Z,67.30
2018-01-21T02:47:32.043Z,144.07
2018-01-21T02:50:01.930Z,65.18
2018-01-21T02:52:31.762Z,79.35
2018-01-21T02:55:01.919Z,77.35
2018-01-21T02:57:31.747Z,50.22
2018-01-21T03:00:01.570Z,58.70
2018-01-21T03:02:31.437Z,69.85
2018-01-21T03:05:01.309Z,98.82
2018-01-21T03:07:31.190Z,94.45
2018-01-21T03:10:01.018Z,154.95
2018-01-21T03:12:30.911Z,118.57
2018-01-21T03:15:00.795Z,115.37
2018-01-21T03:17:30.646Z,92.10
2018-01-21T03:20:00.486Z,145.25
2018-01-21T03:22:30.357Z,136.00
2018-01-21T03:25:00.192Z,154.40
2018-01-21T03:27:30.362Z,203.27
2018-01-21T03:30:00.203Z,132.02
2018-01-21T03:32:30.082Z,91.85
2018-01-21T03:34:59.909Z,176.05
2018-01-21T03:37:29.765Z,191.80
2018-01-21T03:39:59.646Z,139.40
2018-01-21T03:42:29.518Z,168.65
2018-01-21T03:44:59.392Z,161.52
2018-01-21T03:47:29.273Z,257.75
2018-01-21T03:49:59.300Z,171.73
2018-01-21T03:52:29.137Z,274.98
2018-01-21T03:54:59.010Z,129.75
2018-01-21T03:57:28.898Z,134.63
2018-01-21T03:59:58.740Z,130.02
2018-01-21T04:02:28.566Z,99.05
2018-01-21T04:04:58.663Z,191.03
2018-01-21T04:07:28.586Z,101.20
2018-01-21T04:09:58.477Z,128.35
2018-01-21T04:12:28.310Z,114.82
2018-01-21T04:14:58.194Z,173.38
2018-01-21T04:17:28.397Z,133.20
2018-01-21T04:19:58.235Z,144.93
2018-01-21T04:22:28.121Z,143.93
2018-01-21T04:24:58.005Z,147.43
2018-01-21T04:27:27.838Z,127.45
2018-01-21T04:29:57.725Z,106.72
2018-01-21T04:32:27.598Z,168.30
2018-01-21T04:34:57.466Z,153.23
2018-01-21T04:37:27.341Z,95.72
2018-01-21T04:39:57.218Z,121.70
2018-01-21T04:42:27.046Z,116.70
2018-01-21T04:44:56.985Z,106.35
2018-01-21T04:47:26.817Z,115.80
2018-01-21T04:49:56.707Z,140.50
2018-01-21T04:52:26.538Z,154.80
2018-01-21T04:54:56.410Z,118.47
2018-01-21T04:57:26.237Z,108.57
2018-01-21T04:59:56.346Z,121.18
2018-01-21T05:02:26.331Z,140.93
2018-01-21T05:04:56.174Z,101.05
2018-01-21T05:07:26.010Z,130.12
2018-01-21T05:09:55.954Z,107.03
2018-01-21T05:12:25.878Z,111.30
2018-01-21T05:14:55.750Z,85.80
2018-01-21T05:17:25.573Z,114.03
2018-01-21T05:19:55.454Z,101.22
2018-01-21T05:22:25.278Z,89.45
2018-01-21T05:24:55.151Z,112.57
2018-01-21T05:27:24.981Z,111.43
2018-01-21T05:29:54.857Z,108.68
2018-01-21T05:32:24.730Z,113.35
2018-01-21T05:34:54.554Z,117.62
2018-01-21T05:37:24.538Z,100.55
2018-01-21T05:39:54.465Z,127.93
2018-01-21T05:42:24.342Z,104.87
2018-01-21T05:44:54.218Z,125.47
2018-01-21T05:47:24.349Z,103.65
2018-01-21T05:49:54.185Z,120.82
2018-01-21T05:52:24.206Z,106.90
2018-01-21T05:54:54.042Z,134.90
2018-01-21T05:57:23.913Z,164.50
2018-01-21T05:59:53.885Z,176.40
2018-01-21T06:02:23.726Z,118.40
2018-01-21T06:04:53.841Z,131.00
2018-01-21T06:07:23.683Z,139.05
2018-01-21T06:09:53.519Z,107.07
2018-01-21T06:12:23.422Z,118.78
2018-01-21T06:14:53.965Z,166.25
2018-01-21T06:17:23.989Z,173.02
2018-01-21T06:19:53.825Z,146.43
2018-01-21T06:22:23.712Z,92.53
2018-01-21T06:24:53.538Z,98.15
2018-01-21T06:27:23.425Z,107.55
2018-01-21T06:29:53.525Z,89.20
2018-01-21T06:32:23.409Z,88.37
2018-01-21T06:34:53.233Z,86.53
2018-01-21T06:37:23.102Z,86.45
2018-01-21T06:39:52.922Z,75.87
2018-01-21T06:42:22.818Z,92.18
2018-01-21T06:44:52.645Z,90.28
2018-01-21T06:47:22.483Z,84.65
2018-01-21T06:49:52.538Z,86.80
2018-01-21T06:52:22.362Z,86.75
2018-01-21T06:54:52.241Z,83.85
2018-01-21T06:57:22.075Z,93.28
2018-01-21T06:59:51.938Z,93.72
2018-01-21T07:02:21.965Z,71.67
2018-01-21T07:04:51.794Z,74.90
2018-01-21T07:07:21.621Z,104.90
2018-01-21T07:09:51.518Z,90.85
2018-01-21T07:12:21.361Z,88.00
2018-01-21T07:14:51.254Z,68.20
2018-01-21T07:17:21.086Z,88.18
2018-01-21T07:19:50.962Z,89.10
2018-01-21T07:22:20.790Z,82.12
2018-01-21T07:24:50.669Z,77.28
2018-01-21T07:27:20.502Z,70.78
2018-01-21T07:29:50.361Z,86.07
2018-01-21T07:32:20.230Z,74.20
2018-01-21T07:34:50.106Z,81.57
2018-01-21T07:37:19.990Z,69.05
2018-01-21T07:39:49.814Z,84.85
2018-01-21T07:42:19.670Z,86.23
2018-01-21T07:44:49.498Z,69.70
2018-01-21T07:47:19.369Z,74.03
2018-01-21T07:49:49.197Z,67.90
2018-01-21T07:52:19.062Z,72.07
2018-01-21T07:54:49.002Z,61.40
2018-01-21T07:57:18.835Z,50.38
2018-01-21T07:59:48.658Z,49.58
2018-01-21T08:02:18.537Z,51.15
2018-01-21T08:04:48.369Z,51.80
2018-01-21T08:07:18.237Z,63.78
2018-01-21T08:09:48.209Z,72.78
2018-01-21T08:12:18.089Z,53.55
2018-01-21T08:14:47.969Z,68.15
2018-01-21T08:17:17.797Z,58.20
2018-01-21T08:19:47.667Z,72.80
2018-01-21T08:22:17.505Z,67.50
2018-01-21T08:24:47.374Z,59.17
2018-01-21T08:27:17.201Z,50.25
2018-01-21T08:29:47.089Z,58.35
2018-01-21T08:32:17.207Z,54.58
2018-01-21T08:34:52.938Z,53.90
2018-01-21T08:37:28.634Z,50.53
2018-01-21T08:40:04.193Z,42.85
2018-01-21T08:42:35.734Z,50.17
2018-01-21T08:45:05.785Z,41.65
2018-01-21T08:47:35.618Z,46.27
2018-01-21T08:50:05.450Z,48.10
2018-01-21T08:52:35.318Z,48.90
2018-01-21T08:55:05.378Z,41.13
2018-01-21T08:57:35.206Z,45.35
2018-01-21T09:00:05.294Z,56.80
2018-01-21T09:02:35.113Z,47.90
2018-01-21T09:05:05.274Z,45.70
2018-01-21T09:07:35.149Z,55.97
2018-01-21T09:10:05.059Z,39.90
2018-01-21T09:12:34.945Z,46.88
2018-01-21T09:15:04.774Z,39.35
2018-01-21T09:17:34.651Z,46.03
2018-01-21T09:20:04.483Z,43.20
2018-01-21T09:22:34.349Z,32.28
2018-01-21T09:25:04.169Z,35.88
2018-01-21T09:27:34.063Z,42.40
2018-01-21T09:30:04.021Z,39.07
2018-01-21T09:32:33.899Z,34.90
2018-01-21T09:35:03.746Z,35.15
2018-01-21T09:37:33.569Z,40.67
2018-01-21T09:40:03.472Z,51.17
2018-01-21T09:42:33.298Z,41.05
2018-01-21T09:45:03.230Z,46.97
2018-01-21T09:47:33.049Z,43.97
2018-01-21T09:50:02.940Z,35.87
2018-01-21T09:52:32.822Z,47.43
2018-01-21T09:55:03.259Z,41.17
2018-01-21T09:57:33.122Z,42.83
2018-01-21T10:00:02.953Z,48.78
2018-01-21T10:02:32.829Z,43.97
2018-01-21T10:05:03.546Z,52.60
2018-01-21T10:07:33.421Z,48.90
2018-01-21T10:10:03.293Z,43.20
2018-01-21T10:12:33.122Z,37.70
2018-01-21T10:15:03.094Z,45.63
2018-01-21T10:17:32.925Z,45.90
2018-01-21T10:20:02.742Z,45.63
2018-01-21T10:22:32.866Z,43.67
2018-01-21T10:25:02.694Z,43.85
2018-01-21T10:27:32.534Z,57.03
2018-01-21T10:30:02.534Z,34.93
2018-01-21T10:32:32.448Z,40.83
2018-01-21T10:35:02.263Z,33.43
2018-01-21T10:37:32.130Z,40.00
2018-01-21T10:40:02.040Z,40.00
2018-01-21T10:42:31.971Z,35.50
2018-01-21T10:45:01.886Z,41.63
2018-01-21T10:47:31.967Z,40.80
2018-01-21T10:50:01.785Z,41.37
2018-01-21T10:52:31.614Z,43.20
2018-01-21T10:55:02.399Z,35.27
2018-01-21T10:57:32.222Z,40.20
2018-01-21T11:00:02.400Z,39.97
2018-01-21T11:02:32.285Z,37.40
2018-01-21T11:05:02.209Z,45.30
2018-01-21T11:07:32.061Z,38.47
2018-01-21T11:10:02.090Z,38.50
2018-01-21T11:12:32.028Z,41.60
2018-01-21T11:15:01.905Z,38.50
2018-01-21T11:17:31.743Z,38.28
2018-01-21T11:20:01.569Z,43.85
2018-01-21T11:22:31.441Z,36.53
2018-01-21T11:25:01.263Z,35.40
2018-01-21T11:27:31.130Z,39.07
2018-01-21T11:30:00.950Z,46.17
2018-01-21T11:32:30.842Z,45.40
2018-01-21T11:35:00.666Z,47.53
2018-01-21T11:37:30.534Z,52.10
2018-01-21T11:40:00.363Z,45.75
2018-01-21T11:42:30.230Z,42.23
2018-01-21T11:45:00.107Z,47.07
2018-01-21T11:47:29.983Z,44.20
2018-01-21T11:49:59.909Z,43.13
2018-01-21T11:52:29.737Z,44.63
2018-01-21T11:54:59.561Z,45.20
2018-01-21T11:57:29.474Z,44.53
2018-01-21T11:59:59.314Z,46.03
2018-01-21T12:02:29.198Z,48.53
2018-01-21T12:04:59.035Z,45.65
2018-01-21T12:07:28.906Z,49.27
2018-01-21T12:09:58.722Z,48.43
2018-01-21T12:12:28.614Z,45.83
2018-01-21T12:14:58.474Z,46.17
2018-01-21T12:17:28.355Z,46.97
2018-01-21T12:19:58.215Z,52.90
2018-01-21T12:22:28.086Z,45.63
2018-01-21T12:24:57.982Z,54.90
2018-01-21T12:27:27.893Z,38.53
2018-01-21T12:29:57.777Z,48.40
2018-01-21T12:32:27.652Z,48.45
2018-01-21T12:34:57.478Z,51.00
2018-01-21T12:37:27.360Z,49.77
2018-01-21T12:39:57.195Z,55.67
2018-01-21T12:42:27.077Z,50.03
2018-01-21T12:44:57.186Z,49.67
2018-01-21T12:47:27.018Z,51.60
2018-01-21T12:49:56.939Z,58.57
2018-01-21T12:52:26.758Z,55.43
2018-01-21T12:54:56.790Z,52.63
2018-01-21T12:57:26.722Z,48.87
2018-01-21T12:59:56.850Z,45.63
2018-01-21T13:02:26.784Z,40.53
2018-01-21T13:04:56.634Z,43.03
2018-01-21T13:07:26.493Z,51.70
2018-01-21T13:09:56.318Z,38.23
2018-01-21T13:12:26.199Z,43.70
2018-01-21T13:14:56.022Z,42.73
2018-01-21T13:17:25.903Z,43.80
2018-01-21T13:19:55.730Z,41.87
2018-01-21T13:22:25.562Z,41.93
2018-01-21T13:24:55.430Z,37.40
2018-01-21T13:27:25.245Z,44.90
2018-01-21T13:29:55.261Z,37.03
2018-01-21T13:32:25.088Z,37.67
2018-01-21T13:34:54.947Z,44.87
2018-01-21T13:37:25.062Z,43.90
2018-01-21T13:39:54.887Z,34.73
2018-01-21T13:42:24.719Z,37.37
2018-01-21T13:44:54.622Z,33.93
2018-01-21T13:47:24.464Z,31.63
2018-01-21T13:49:54.323Z,28.90
2018-01-21T13:52:24.150Z,33.57
2018-01-21T13:54:54.014Z,31.43
2018-01-21T13:57:23.846Z,32.33
2018-01-21T13:59:53.709Z,28.90
2018-01-21T14:02:23.534Z,34.40
2018-01-21T14:04:53.506Z,28.83
2018-01-21T14:07:23.340Z,26.63
2018-01-21T14:09:53.214Z,33.90
2018-01-21T14:12:23.134Z,26.83
2018-01-21T14:14:53.854Z,24.90
2018-01-21T14:17:23.978Z,25.10
2018-01-21T14:19:53.806Z,28.93
2018-01-21T14:22:23.627Z,25.60
2018-01-21T14:24:53.482Z,25.97
2018-01-21T14:27:23.306Z,27.93
2018-01-21T14:29:53.189Z,23.90
2018-01-21T14:32:23.024Z,23.13
2018-01-21T14:34:52.890Z,23.13
2018-01-21T14:37:22.719Z,23.00
2018-01-21T14:39:52.589Z,31.97
2018-01-21T14:42:22.413Z,32.03
2018-01-21T14:44:52.278Z,21.80
2018-01-21T14:47:22.106Z,27.03
2018-01-21T14:49:52.017Z,29.27
2018-01-21T14:52:21.909Z,28.08
2018-01-21T14:54:51.734Z,27.85
2018-01-21T14:57:21.625Z,22.65
2018-01-21T14:59:51.658Z,24.53
2018-01-21T15:02:21.545Z,25.40
2018-01-21T15:04:51.421Z,29.10
2018-01-21T15:07:21.230Z,23.23
2018-01-21T15:09:51.230Z,23.07
2018-01-21T15:12:21.050Z,27.27
2018-01-21T15:14:50.938Z,26.30
2018-01-21T15:17:20.910Z,18.23
2018-01-21T15:19:50.738Z,22.73
2018-01-21T15:22:20.565Z,23.13
2018-01-21T15:24:50.438Z,23.17
2018-01-21T15:27:20.301Z,25.07
2018-01-21T15:29:50.130Z,28.17
2018-01-21T15:32:20.008Z,23.13
2018-01-21T15:34:49.889Z,29.27
2018-01-21T15:37:19.713Z,32.15
2018-01-21T15:39:49.593Z,32.10
2018-01-21T15:42:19.411Z,21.90
2018-01-21T15:44:49.327Z,29.40
2018-01-21T15:47:19.158Z,25.53
2018-01-21T15:49:49.047Z,25.05
2018-01-21T15:52:18.874Z,20.05
2018-01-21T15:54:48.753Z,25.00
2018-01-21T15:57:18.834Z,18.55
2018-01-21T15:59:48.723Z,21.67
2018-01-21T16:02:18.582Z,29.30
2018-01-21T16:04:48.457Z,26.48
2018-01-21T16:07:18.297Z,22.45
2018-01-21T16:09:48.225Z,24.63
2018-01-21T16:12:18.189Z,22.83
2018-01-21T16:14:48.042Z,17.23
2018-01-21T16:17:17.928Z,30.00
2018-01-21T16:19:47.759Z,28.05
2018-01-21T16:22:17.590Z,31.30
2018-01-21T16:24:47.470Z,28.35
2018-01-21T16:27:17.301Z,20.33
2018-01-21T16:29:47.178Z,24.37
2018-01-21T16:32:16.997Z,16.83
2018-01-21T16:34:46.922Z,26.73
2018-01-21T16:37:22.663Z,20.60
2018-01-21T16:39:52.550Z,22.73
2018-01-21T16:42:22.385Z,25.48
2018-01-21T16:44:52.518Z,24.17
2018-01-21T16:47:22.346Z,22.73
2018-01-21T16:49:52.244Z,27.40
2018-01-21T16:52:22.089Z,23.67
2018-01-21T16:54:51.964Z,23.92
2018-01-21T16:57:22.102Z,22.58
2018-01-21T16:59:51.937Z,21.00
2018-01-21T17:02:21.858Z,19.73
2018-01-21T17:04:51.758Z,21.08
2018-01-21T17:07:21.605Z,15.40
2018-01-21T17:09:51.446Z,20.55
2018-01-21T17:12:21.326Z,15.90
2018-01-21T17:14:51.158Z,23.33
2018-01-21T17:17:21.934Z,19.37
2018-01-21T17:19:51.820Z,16.73
2018-01-21T17:22:21.630Z,20.37
2018-01-21T17:24:51.614Z,30.17
2018-01-21T17:27:21.439Z,28.37
2018-01-21T17:29:51.326Z,26.15
2018-01-21T17:32:21.145Z,18.40
2018-01-21T17:34:51.118Z,17.67
2018-01-21T17:37:20.942Z,17.00
2018-01-21T17:39:50.805Z,16.58
2018-01-21T17:42:20.689Z,15.93
2018-01-21T17:44:50.621Z,16.23
2018-01-21T17:47:20.486Z,14.80
2018-01-21T17:49:50.309Z,16.60
2018-01-21T17:52:20.197Z,24.40
2018-01-21T17:54:50.070Z,16.00
2018-01-21T17:57:19.937Z,16.40
2018-01-21T17:59:49.797Z,13.65
2018-01-21T18:02:19.618Z,19.70
2018-01-21T18:04:49.496Z,15.43
2018-01-21T18:07:19.369Z,14.98
2018-01-21T18:09:49.199Z,19.13
2018-01-21T18:12:19.086Z,18.35
2018-01-21T18:14:48.898Z,20.00
2018-01-21T18:17:18.755Z,18.83
2018-01-21T18:19:48.890Z,18.95
2018-01-21T18:22:18.701Z,16.00
2018-01-21T18:24:48.551Z,18.37
2018-01-21T18:27:18.555Z,15.53
2018-01-21T18:29:48.383Z,14.30
2018-01-21T18:32:18.254Z,19.12
2018-01-21T18:34:48.145Z,13.00
2018-01-21T18:37:18.025Z,17.97
2018-01-21T18:39:47.878Z,16.98
2018-01-21T18:42:17.947Z,15.18
2018-01-21T18:44:47.822Z,21.20
2018-01-21T18:47:17.646Z,19.87
2018-01-21T18:49:47.698Z,16.62
2018-01-21T18:52:17.718Z,19.75
2018-01-21T18:54:47.734Z,18.93
2018-01-21T18:57:17.606Z,19.20
2018-01-21T18:59:47.698Z,17.60
2018-01-21T19:02:17.530Z,21.73
2018-01-21T19:04:47.402Z,18.37
2018-01-21T19:07:17.229Z,16.57
2018-01-21T19:09:47.293Z,18.30
2018-01-21T19:12:17.122Z,17.65
2018-01-21T19:14:46.995Z,28.10
2018-01-21T19:17:16.857Z,22.15
2018-01-21T19:19:46.695Z,24.00
2018-01-21T19:22:16.669Z,20.00
2018-01-21T19:24:46.489Z,20.50
2018-01-21T19:27:16.363Z,21.37
2018-01-21T19:29:46.185Z,18.00
2018-01-21T19:32:16.063Z,16.48
2018-01-21T19:34:45.886Z,17.80
2018-01-21T19:37:15.713Z,16.95
2018-01-21T19:39:47.553Z,20.60
2018-01-21T19:42:18.037Z,26.33
2018-01-21T19:44:47.942Z,18.98
2018-01-21T19:47:17.802Z,23.05
2018-01-21T19:49:47.634Z,24.05
2018-01-21T19:52:17.470Z,23.17
2018-01-21T19:54:47.338Z,20.98
2018-01-21T19:57:17.196Z,23.67
2018-01-21T19:59:47.017Z,16.08
2018-01-21T20:02:17.010Z,19.23
2018-01-21T20:04:46.870Z,17.27
2018-01-21T20:07:16.725Z,16.08
2018-01-21T20:09:46.577Z,14.87
2018-01-21T20:12:16.411Z,15.57
2018-01-21T20:14:46.290Z,19.60
2018-01-21T20:17:16.113Z,19.63
2018-01-21T20:19:45.970Z,20.97
2018-01-21T20:22:15.785Z,22.03
2018-01-21T20:24:45.650Z,15.88
2018-01-21T20:27:15.483Z,14.55
2018-01-21T20:29:45.457Z,15.65
2018-01-21T20:32:15.356Z,15.10
2018-01-21T20:34:45.217Z,12.85
2018-01-21T20:37:15.487Z,13.02
2018-01-21T20:39:45.509Z,13.75
2018-01-21T20:42:15.341Z,15.03
2018-01-21T20:44:45.202Z,15.67
2018-01-21T20:47:15.071Z,16.25
2018-01-21T20:49:44.927Z,20.27
2018-01-21T20:52:20.594Z,17.73
2018-01-21T20:54:50.453Z,17.27
2018-01-21T20:57:20.323Z,15.70
2018-01-21T20:59:50.161Z,21.15
2018-01-21T21:02:20.042Z,15.90
2018-01-21T21:04:49.857Z,14.70
2018-01-21T21:07:19.681Z,18.10
2018-01-21T21:09:49.542Z,16.03
2018-01-21T21:12:19.398Z,15.07
2018-01-21T21:14:49.224Z,16.10
2018-01-21T21:17:19.077Z,19.33
2018-01-21T21:19:48.906Z,12.20
2018-01-21T21:22:18.761Z,17.27
2018-01-21T21:24:48.638Z,14.67
2018-01-21T21:27:18.498Z,16.05
2018-01-21T21:29:48.363Z,16.27
2018-01-21T21:32:18.226Z,22.00
2018-01-21T21:34:48.049Z,17.25
2018-01-21T21:37:17.917Z,16.75
2018-01-21T21:39:47.766Z,18.30
2018-01-21T21:42:17.591Z,17.40
2018-01-21T21:44:47.406Z,20.20
2018-01-21T21:47:17.276Z,15.43
2018-01-21T21:49:47.397Z,19.73
2018-01-21T21:52:17.222Z,15.50
2018-01-21T21:54:47.077Z,15.70
2018-01-21T21:57:16.930Z,14.57
2018-01-21T21:59:46.778Z,22.17
2018-01-21T22:02:16.645Z,21.70
2018-01-21T22:04:47.482Z,22.20
2018-01-21T22:07:17.354Z,21.87
2018-01-21T22:09:47.229Z,15.63
2018-01-21T22:12:17.370Z,18.97
2018-01-21T22:14:47.206Z,16.80
2018-01-21T22:17:17.095Z,19.35
2018-01-21T22:19:46.950Z,18.37
2018-01-21T22:22:16.778Z,19.25
2018-01-21T22:24:46.693Z,21.05
2018-01-21T22:27:16.622Z,17.87
2018-01-21T22:29:46.489Z,18.48
2018-01-21T22:32:16.378Z,18.77
2018-01-21T22:34:46.241Z,20.87
2018-01-21T22:37:16.062Z,15.38
2018-01-21T22:39:45.953Z,16.02
2018-01-21T22:42:15.778Z,21.60
2018-01-21T22:44:45.645Z,19.00
2018-01-21T22:47:15.677Z,18.60
2018-01-21T22:49:45.537Z,24.17
2018-01-21T22:52:15.382Z,19.00
2018-01-21T22:54:45.237Z,23.47
2018-01-21T22:57:15.090Z,17.40
2018-01-21T22:59:44.958Z,22.48
2018-01-21T23:02:14.897Z,16.48
2018-01-21T23:04:44.758Z,17.95
2018-01-21T23:07:14.589Z,20.70
2018-01-21T23:09:44.438Z,19.52
2018-01-21T23:12:14.258Z,16.12
2018-01-21T23:14:44.163Z,20.30
2018-01-21T23:17:14.045Z,19.80
2018-01-21T23:19:43.970Z,18.10
2018-01-21T23:22:13.790Z,18.05
2018-01-21T23:24:43.610Z,16.08
2018-01-21T23:27:13.470Z,24.65
2018-01-21T23:29:43.293Z,18.75
2018-01-21T23:32:13.153Z,22.37
2018-01-21T23:34:42.973Z,19.70
2018-01-21T23:37:12.829Z,24.25
2018-01-21T23:39:42.654Z,20.95
2018-01-21T23:42:12.523Z,21.73
2018-01-21T23:44:42.345Z,24.48
2018-01-21T23:47:12.219Z,16.80
2018-01-21T23:49:42.083Z,23.87
2018-01-21T23:52:11.946Z,22.45
2018-01-21T23:54:41.810Z,19.50
2018-01-21T23:57:11.653Z,21.65
2018-01-21T23:59:41.486Z,16.33
